Preview of NWS' New Version of Forecast
This preview is not operational and should not be used for support decisions.
Latest weather observations around

COTTAGE (STUC1)

Using English Units (Switch to International System of Units)
Date/ Time (PST) Wind (mph) Vis. (mi) Weather Sky Cond. Temp (°F) Rel. Humidity Wind Chill (°F) Heat Index (°F) Pressure Precip. (in)
Air Dwpt 6 hour Altimeter (inHg) Sea level (inHg) 1 hr 3 hr 6 hr
Max Min
Feb 21 13:54 NNE 14   Clear   28 6     38% 17            
Feb 21 12:54 NE 19   Clear   28 7     41% 15            
Feb 21 11:54     Clear   27 6     41%              
Feb 21 10:54     Clear   26 9     47%              
Feb 21 09:54     Clear   25 9     49%              
Feb 21 08:54     Clear   22 8     53%              
Feb 21 07:54     Clear   20 8     58%              
Feb 21 06:54     Clear   18 9     67%              
Feb 21 05:54     Clear   18 10     71%              
Feb 21 04:54 NNE 10   Clear   18 11     74% 6            
Feb 21 03:54 NNE 12   Clear   18 11     75% 5            
Feb 21 02:54 NE 10   Clear   18 13     81% 6            
Feb 21 01:54 NNW 7   Clear   19 17     93% 10            
Feb 21 00:54 WNW 5   Clear   19 17     91% 12            
Feb 20 23:54 WNW 3   Clear   18 17     94% 13            
Feb 20 22:54 ENE 7   Clear   19 18     95% 10            
Feb 20 21:54 NNW 5   Clear   19 18     97% 12            
Feb 20 20:54 NW 8   Clear   18 17     97% 8            
Feb 20 19:54 NW 10   Clear   20 20     98% 9            
Feb 20 18:54 NW 7   Clear   20 20     98% 11            
Feb 20 17:54 WNW 12   Clear   21 21     99% 9            
Feb 20 16:54 WNW 10   Clear   22 22     99% 11            
Feb 20 15:54 WSW 6   Clear   24        % 17            
Feb 20 14:54 SSW 4   Clear   23 23     98% 18            
Feb 20 13:54 S 4   Clear   25 24     97% 20            
Feb 20 12:54 SSW 4   Clear   24 24     98% 19            
Feb 20 11:54 SSW 3   Clear   25 24     96% 21            
Feb 20 10:54 SSE 5   Clear   22        % 15            
Feb 20 09:54 SSE 5   Clear   22 22     98% 15            
Feb 20 08:54 SE 5   Clear   21 21     98% 14            
Feb 20 07:54 SE 6   Clear   21 21     98% 13            
Feb 20 06:54 SE 8   Clear   21 21     98% 11            
Feb 20 05:54 SSE 11   Clear   21 21     99% 9            
Feb 20 04:54 SSE 6   Clear   23 23     100% 16            
Feb 20 03:54 SE 10   Clear   23 23     100% 13            
Feb 20 02:54 SE 12   Clear   23 23     100% 11            
Feb 20 01:54 SE 10   Clear   23        % 13            
Feb 20 00:54 SE 13   Clear   23        % 11            
Feb 19 23:54 SE 10   Clear   23        % 13            
Feb 19 22:54 W 6   Clear   26 22     84% 19            
Feb 19 21:54 WSW 5   Clear   28 21     74% 22            
Feb 19 20:54 W 5   Clear   29 20     68% 24            
Feb 19 19:54 WNW 8   Clear   29 24     80% 21            
Feb 19 18:54 N 5   Clear   25 24     97% 19            
Feb 19 17:54 WNW 6   Clear   26 23     89% 19            
Feb 19 16:54 WNW 11   Clear   30 24     78% 21            
Feb 19 15:54 WNW 11   Clear   31 24     74% 22            
Feb 19 14:54 WNW 8   Clear   33 23     65% 26            
Feb 19 13:54 W 9   Clear   33 22     63% 25            
Feb 19 12:54 WNW 9   Clear   32 19     57% 24            
Feb 19 11:54 WNW 9   Clear   32 19     58% 24            
Feb 19 10:54 WNW 4   Clear   36 15     42% 33            
Feb 19 09:54 W 2   Clear   36 10     34%              
Notice The following observation data may not be complete
Feb 19 08:54 NNW 4   Clear            %              
Notice The following observation data may not be complete
Feb 19 07:54 NE 8   Clear     -1      %              
Notice The following observation data may not be complete
Feb 19 06:54 NE 16   Clear     -1      %              
Notice The following observation data may not be complete
Feb 19 05:54     Clear     0      %              
Notice The following observation data may not be complete
Feb 19 04:54 NE 14   Clear     2      %              
Notice The following observation data may not be complete
Feb 19 03:54 NNW 2   Clear     1      %              
Feb 19 02:54 S 4   Clear   19 6     56% 13            
Feb 19 01:54     Clear   19 7     59%              
Feb 19 00:54     Clear   18 9     67%              
Feb 18 23:54     Clear   17 10     75%              
Feb 18 22:54     Clear   17 12     79%              
Feb 18 21:54     Clear   17 13     84%              
Feb 18 20:54     Clear   17 14     87%              
Feb 18 19:54 NE 14   Clear   17 14     89% 3            
Feb 18 18:54 NE 16   Clear   18 17     94% 3            
Feb 18 17:54 NE 13   Clear   20 19     96% 7            
Feb 18 16:54 NNE 9   Clear   22 21     95% 12            
Feb 18 15:54 NE 3   Clear   26 25     95% 23            
Feb 18 14:54 NE 10   Clear   25 24     94% 15            
May 15 00:54 SW 2   Clear   48 38     68%              
May 14 19:54 NE 10   Clear   49 41     75% 45            
May 14 18:54 E 12   Clear   50 40     69% 45            
May 14 11:54 W 8   Clear   58 47     67%              
May 14 09:54 SW 4   Clear   60 47     61%              
May 13 19:54 WNW 11   Clear   50 41     72% 46            
May 12 15:54 SSW 11   Clear   55 31     39%              
May 11 20:54 NE 13   Clear   46 17     31% 40            
Jun 11 21:54 NE 7   Clear   31 31     100% 24            
Jun 11 01:54 SE 14   Clear   37 36     95% 28            
Jun 09 14:54 SSE 11   Clear   48 48     100% 43            
Jun 08 16:54 SE 14   Clear   45 44     98% 39            
Jun 06 12:54 SSE 10   Clear   74 28     18%   72          
Jun 06 04:54 ESE 10   Clear   59        %